Time;durP1;ratioP1;P1;durP2;ratioP2;P2;SDS_P1;SDS_P2;PMS_P1;PMS_P2;Temp;Humidity;BMP_temperature;BMP_pressure;BME280_temperature;BME280_humidity;BME280_pressure;Samples;Min_cycle;Max_cycle;Signal;HPM_P1;HPM_P2
2023/10/02 00:01:51;;;;;;;14.52;5.38;;;17.10;99.90;;;;;;5000473;28;20049;-70
2023/10/02 00:04:17;;;;;;;15.98;4.75;;;17.20;99.90;;;;;;4996045;28;20034;-71
2023/10/02 00:06:44;;;;;;;16.40;5.22;;;17.20;99.90;;;;;;5005697;28;20402;-72
2023/10/02 00:09:11;;;;;;;19.30;5.07;;;17.20;99.90;;;;;;4981213;28;20042;-70
2023/10/02 00:11:39;;;;;;;10.60;4.43;;;17.20;99.90;;;;;;4980455;28;20410;-72
2023/10/02 00:14:18;;;;;;;14.50;4.40;;;17.30;99.90;;;;;;4977948;28;20026;-73
2023/10/02 00:17:04;;;;;;;13.38;4.85;;;17.30;99.90;;;;;;4983554;28;20058;-71
2023/10/02 00:19:40;;;;;;;12.88;5.07;;;17.30;99.90;;;;;;4993637;28;20034;-71
2023/10/02 00:22:08;;;;;;;12.13;4.50;;;17.30;99.90;;;;;;4977737;28;20042;-71
2023/10/02 00:24:41;;;;;;;12.63;4.57;;;17.30;99.90;;;;;;4993741;28;20034;-71
2023/10/02 00:27:09;;;;;;;12.93;4.80;;;17.30;99.90;;;;;;4978108;28;20518;-70
2023/10/02 00:29:51;;;;;;;14.27;4.75;;;17.30;99.90;;;;;;4980654;28;20045;-72
2023/10/02 00:32:19;;;;;;;15.50;5.15;;;17.30;99.90;;;;;;4995224;28;20041;-72
2023/10/02 00:34:45;;;;;;;10.30;4.03;;;17.30;99.90;;;;;;4982751;28;20026;-71
2023/10/02 00:37:15;;;;;;;16.92;5.47;;;17.30;99.90;;;;;;4999079;28;20029;-71
2023/10/02 00:39:41;;;;;;;13.38;4.75;;;17.30;99.90;;;;;;4982880;28;20124;-72
2023/10/02 00:42:24;;;;;;;13.63;5.40;;;17.30;99.90;;;;;;4998640;28;20022;-72
2023/10/02 00:44:51;;;;;;;12.07;4.20;;;17.30;99.90;;;;;;4995854;28;20159;-71
2023/10/02 00:50:22;;;;;;;15.43;4.95;;;17.30;99.90;;;;;;4984180;28;20041;-71
2023/10/02 00:52:50;;;;;;;13.68;4.90;;;17.30;99.90;;;;;;4996251;28;20042;-72
2023/10/02 00:55:21;;;;;;;13.07;4.35;;;17.30;99.90;;;;;;4999326;28;20038;-71
2023/10/02 00:57:52;;;;;;;13.77;4.50;;;17.30;99.90;;;;;;4995865;28;20053;-72
2023/10/02 01:00:21;;;;;;;13.13;4.35;;;17.30;99.90;;;;;;4994204;28;20072;-70
2023/10/02 01:02:57;;;;;;;20.27;5.80;;;17.30;99.90;;;;;;4995726;28;20045;-70
2023/10/02 01:05:30;;;;;;;16.30;5.18;;;17.30;99.90;;;;;;4977831;28;20093;-71
2023/10/02 01:07:57;;;;;;;10.82;4.57;;;17.30;99.90;;;;;;4981929;28;20040;-70
2023/10/02 01:10:29;;;;;;;11.38;4.60;;;17.20;99.90;;;;;;4999253;28;20025;-70
2023/10/02 01:13:01;;;;;;;11.57;4.53;;;17.20;99.90;;;;;;4994617;28;20034;-70
2023/10/02 01:15:28;;;;;;;10.50;4.30;;;17.20;99.90;;;;;;5001875;28;20026;-71
2023/10/02 01:18:21;;;;;;;15.05;4.97;;;17.20;99.90;;;;;;4995453;28;20035;-71
2023/10/02 01:20:48;;;;;;;14.10;4.53;;;17.20;99.90;;;;;;4998585;28;20026;-71
2023/10/02 01:23:17;;;;;;;16.87;5.70;;;17.10;99.90;;;;;;4979067;28;20037;-71
2023/10/02 01:25:47;;;;;;;13.13;4.90;;;17.10;99.90;;;;;;4999035;28;20023;-71
2023/10/02 01:28:14;;;;;;;12.05;4.55;;;17.10;99.90;;;;;;4979523;28;20084;-71
2023/10/02 01:30:47;;;;;;;12.65;4.05;;;17.10;99.90;;;;;;4995704;28;20042;-70
2023/10/02 01:35:46;;;;;;;14.18;4.30;;;17.00;99.90;;;;;;4998595;28;20036;-72
2023/10/02 01:38:14;;;;;;;14.88;4.65;;;16.90;99.90;;;;;;4994119;28;20057;-70
2023/10/02 01:40:48;;;;;;;15.45;5.32;;;16.90;99.90;;;;;;4998212;28;20034;-71
2023/10/02 01:43:16;;;;;;;11.88;4.90;;;16.90;99.90;;;;;;4993639;28;20121;-72
2023/10/02 01:45:43;;;;;;;14.88;5.03;;;16.90;99.90;;;;;;4980874;28;20426;-71
2023/10/02 01:48:14;;;;;;;12.25;4.40;;;16.80;99.90;;;;;;4994410;28;20026;-70
2023/10/02 01:50:43;;;;;;;13.88;5.50;;;16.80;99.90;;;;;;4980356;28;20379;-69
2023/10/02 01:53:28;;;;;;;14.30;4.90;;;16.80;99.90;;;;;;4994313;28;20031;-72
2023/10/02 01:56:00;;;;;;;13.63;5.15;;;16.80;99.90;;;;;;4994421;28;20045;-69
2023/10/02 01:58:26;;;;;;;14.85;5.18;;;16.80;99.90;;;;;;4996097;28;20031;-71
2023/10/02 02:00:52;;;;;;;13.32;5.00;;;16.80;99.90;;;;;;4997749;28;20118;-71
2023/10/02 02:03:18;;;;;;;15.85;5.03;;;16.70;99.90;;;;;;4994015;28;20125;-71
2023/10/02 02:05:45;;;;;;;15.05;4.55;;;16.70;99.90;;;;;;4999019;28;20064;-70
2023/10/02 02:08:23;;;;;;;15.32;5.18;;;16.70;99.90;;;;;;4995763;28;20029;-71
2023/10/02 02:10:51;;;;;;;14.43;4.50;;;16.60;99.90;;;;;;4977249;28;20042;-70
2023/10/02 02:13:18;;;;;;;16.10;4.53;;;16.60;99.90;;;;;;4980852;28;20031;-71
2023/10/02 02:15:51;;;;;;;15.60;5.20;;;16.60;99.90;;;;;;4982197;28;20034;-71
2023/10/02 02:18:19;;;;;;;14.52;5.00;;;16.60;99.90;;;;;;4994583;28;20030;-71
2023/10/02 02:20:57;;;;;;;14.63;4.72;;;16.60;99.90;;;;;;4982073;28;20085;-71
2023/10/02 02:23:24;;;;;;;13.25;4.93;;;16.50;99.90;;;;;;4977852;28;20030;-71
2023/10/02 02:25:50;;;;;;;15.57;5.43;;;16.60;99.90;;;;;;4977752;28;20038;-71
2023/10/02 02:28:16;;;;;;;14.70;5.47;;;16.50;99.90;;;;;;4979394;28;20048;-71
2023/10/02 02:30:43;;;;;;;12.80;5.00;;;16.60;99.90;;;;;;4973473;28;20038;-70
2023/10/02 02:33:09;;;;;;;13.23;4.72;;;16.50;99.90;;;;;;4975341;28;20559;-71
2023/10/02 02:35:39;;;;;;;14.75;5.20;;;16.50;99.90;;;;;;4995034;28;20038;-70
2023/10/02 02:38:16;;;;;;;14.73;5.20;;;16.50;99.90;;;;;;4996068;28;20034;-72
2023/10/02 02:40:42;;;;;;;14.50;4.30;;;16.50;99.90;;;;;;4978278;28;20041;-71
2023/10/02 02:43:19;;;;;;;15.35;5.03;;;16.40;99.90;;;;;;4997463;28;20034;-72
2023/10/02 02:45:45;;;;;;;14.18;5.22;;;16.40;99.90;;;;;;4995064;28;20118;-71
2023/10/02 02:48:12;;;;;;;14.90;5.10;;;16.40;99.90;;;;;;4995241;28;20042;-70
2023/10/02 02:50:42;;;;;;;13.50;4.57;;;16.40;99.90;;;;;;4981091;28;20398;-73
2023/10/02 02:53:21;;;;;;;;;;;16.30;99.90;;;;;;4982650;28;20046;-71
2023/10/02 02:56:23;;;;;;;14.35;4.82;;;16.30;99.90;;;;;;4983897;28;19918;-71
2023/10/02 02:58:50;;;;;;;15.27;4.70;;;16.30;99.90;;;;;;4997361;28;20749;-71
2023/10/02 03:01:24;;;;;;;11.80;4.90;;;16.30;99.90;;;;;;4979433;28;20034;-70
2023/10/02 03:03:59;;;;;;;15.88;5.30;;;16.20;99.90;;;;;;5000292;28;20049;-71
2023/10/02 03:06:24;;;;;;;13.93;4.72;;;16.20;99.90;;;;;;4994940;28;20092;-74
2023/10/02 03:08:54;;;;;;;14.18;5.55;;;16.20;99.90;;;;;;4987794;28;20039;-70
2023/10/02 03:11:22;;;;;;;13.50;4.93;;;16.20;99.90;;;;;;4999237;28;20116;-71
2023/10/02 03:13:51;;;;;;;14.95;5.50;;;16.10;99.90;;;;;;4988383;28;20030;-73
2023/10/02 03:16:28;;;;;;;14.00;5.40;;;16.10;99.90;;;;;;4997026;28;20027;-70
2023/10/02 03:18:54;;;;;;;15.52;5.00;;;16.10;99.90;;;;;;5002789;28;20042;-71
2023/10/02 03:21:24;;;;;;;11.63;4.97;;;16.10;99.90;;;;;;5001221;28;20041;-70
2023/10/02 03:23:54;;;;;;;14.23;5.38;;;16.10;99.90;;;;;;4994926;28;20652;-72
2023/10/02 03:26:37;;;;;;;12.93;4.68;;;16.00;99.90;;;;;;5000073;28;20042;-70
2023/10/02 03:29:05;;;;;;;12.65;5.10;;;16.00;99.90;;;;;;4999850;28;20037;-72
2023/10/02 03:31:35;;;;;;;14.20;5.43;;;16.00;99.90;;;;;;4980559;28;20034;-70
2023/10/02 03:36:59;;;;;;;11.80;4.18;;;16.00;99.90;;;;;;5004163;28;20040;-72
2023/10/02 03:42:21;;;;;;;13.77;4.57;;;15.90;99.90;;;;;;5000302;28;20049;-71
2023/10/02 03:44:54;;;;;;;17.13;5.90;;;15.90;99.90;;;;;;4997313;28;20088;-72
2023/10/02 03:47:20;;;;;;;18.77;6.35;;;15.90;99.90;;;;;;4988192;28;20992;-72
2023/10/02 03:49:47;;;;;;;15.07;5.60;;;15.90;99.90;;;;;;4982152;28;20038;-70
2023/10/02 03:52:16;;;;;;;14.45;5.07;;;15.90;99.90;;;;;;4978453;28;20036;-71
2023/10/02 03:54:45;;;;;;;13.00;4.47;;;15.80;99.90;;;;;;4983369;28;20042;-71
2023/10/02 03:58:02;;;;;;;16.23;5.72;;;15.80;99.90;;;;;;4978147;28;20068;-71
2023/10/02 04:00:16;;;;;;;18.52;5.85;;;15.80;99.90;;;;;;4981447;28;21493;-71
2023/10/02 04:02:44;;;;;;;13.07;5.35;;;15.80;99.90;;;;;;4997178;28;20030;-70
2023/10/02 04:05:10;;;;;;;12.32;4.45;;;15.70;99.90;;;;;;4996490;28;20100;-72
2023/10/02 04:07:35;;;;;;;15.20;5.38;;;15.70;99.90;;;;;;4984611;28;20049;-71
2023/10/02 04:10:06;;;;;;;16.80;5.45;;;15.70;99.90;;;;;;4996674;28;20030;-71
2023/10/02 04:12:50;;;;;;;18.00;5.68;;;15.70;99.90;;;;;;5000084;28;20030;-71
2023/10/02 04:15:18;;;;;;;15.27;5.78;;;15.70;99.90;;;;;;4996628;28;20070;-70
2023/10/02 04:17:49;;;;;;;14.32;4.78;;;15.70;99.90;;;;;;4988148;28;20848;-71
2023/10/02 04:20:27;;;;;;;15.43;5.30;;;15.60;99.90;;;;;;4982824;28;20780;-72
2023/10/02 04:22:54;;;;;;;17.55;4.80;;;15.60;99.90;;;;;;4980885;28;20042;-70
2023/10/02 04:25:24;;;;;;;17.98;5.57;;;15.60;99.90;;;;;;4981178;28;20045;-70
2023/10/02 04:33:08;;;;;;;17.08;5.45;;;15.60;99.90;;;;;;5001360;28;20408;-70
2023/10/02 04:35:45;;;;;;;14.10;6.05;;;15.60;99.90;;;;;;4999368;28;20045;-70
2023/10/02 04:38:14;;;;;;;13.93;4.85;;;15.60;99.90;;;;;;4995842;28;20403;-71
2023/10/02 04:40:49;;;;;;;18.02;5.22;;;15.60;99.90;;;;;;4981344;28;20125;-71
2023/10/02 04:43:19;;;;;;;17.92;6.22;;;15.60;99.90;;;;;;4997733;28;21000;-71
2023/10/02 04:46:02;;;;;;;14.48;5.50;;;15.60;99.90;;;;;;4979458;28;20038;-70
2023/10/02 04:48:39;;;;;;;14.80;5.40;;;15.60;99.90;;;;;;4981286;28;20105;-71
2023/10/02 04:51:09;;;;;;;15.15;5.20;;;15.70;99.90;;;;;;4977642;28;20026;-71
2023/10/02 04:53:36;;;;;;;22.52;5.70;;;15.70;99.90;;;;;;4995932;28;20114;-70
2023/10/02 04:56:18;;;;;;;17.42;5.82;;;15.70;99.90;;;;;;4994686;28;20038;-71
2023/10/02 04:58:50;;;;;;;16.20;6.15;;;15.70;99.90;;;;;;4981531;28;20504;-72
2023/10/02 05:01:28;;;;;;;19.52;5.85;;;15.70;99.90;;;;;;4997105;28;20045;-72
2023/10/02 05:03:55;;;;;;;19.70;5.97;;;15.70;99.90;;;;;;4998544;28;20490;-71
2023/10/02 05:14:28;;;;;;;17.67;4.93;;;15.70;99.90;;;;;;4996639;28;22538;-71
2023/10/02 05:19:56;;;;;;;13.48;4.78;;;15.70;99.90;;;;;;4998324;28;20167;-70
2023/10/02 05:22:27;;;;;;;17.33;5.50;;;15.70;99.90;;;;;;4977803;28;20030;-71
2023/10/02 05:25:18;;;;;;;14.45;5.88;;;15.70;99.90;;;;;;4999064;28;20033;-71
2023/10/02 05:27:40;;;;;;;13.73;5.07;;;15.70;99.90;;;;;;4994998;28;20064;-71
2023/10/02 05:30:17;;;;;;;13.02;5.05;;;15.70;99.90;;;;;;4997631;28;20848;-71
2023/10/02 05:32:43;;;;;;;20.27;6.03;;;15.60;99.90;;;;;;4979177;28;20038;-71
2023/10/02 05:37:45;;;;;;;13.07;5.20;;;15.60;99.90;;;;;;4995903;28;20402;-71
2023/10/02 05:48:07;;;;;;;15.43;5.80;;;15.50;99.90;;;;;;4994685;28;20133;-71
2023/10/02 05:50:40;;;;;;;19.42;6.15;;;15.50;99.90;;;;;;4977279;28;20037;-71
2023/10/02 05:53:06;;;;;;;14.57;5.40;;;15.60;99.90;;;;;;4994739;28;20042;-72
2023/10/02 05:55:56;;;;;;;17.48;6.25;;;15.50;99.90;;;;;;4981104;28;20034;-72
2023/10/02 05:58:31;;;;;;;17.52;6.03;;;15.50;99.90;;;;;;4996202;28;20030;-71
2023/10/02 06:01:01;;;;;;;14.98;5.43;;;15.50;99.90;;;;;;4994698;28;20034;-73
2023/10/02 06:03:34;;;;;;;13.02;5.30;;;15.60;99.90;;;;;;4980302;28;20113;-71
2023/10/02 06:06:15;;;;;;;13.25;5.97;;;15.60;99.90;;;;;;4976946;28;20039;-70
2023/10/02 06:08:49;;;;;;;14.02;5.95;;;15.60;99.90;;;;;;4961019;28;20168;-70
2023/10/02 06:11:35;;;;;;;16.25;5.18;;;15.60;99.90;;;;;;4978790;28;20037;-72
2023/10/02 06:14:11;;;;;;;15.88;5.10;;;15.70;99.90;;;;;;4978325;28;20031;-73
2023/10/02 06:16:39;;;;;;;16.95;5.75;;;15.70;99.90;;;;;;4997222;28;20144;-71
2023/10/02 06:19:06;;;;;;;17.98;5.78;;;15.70;99.90;;;;;;5000367;28;20076;-72
2023/10/02 06:21:47;;;;;;;17.73;5.80;;;15.70;99.90;;;;;;4981166;28;20086;-71
2023/10/02 06:24:17;;;;;;;19.67;6.20;;;15.80;99.90;;;;;;4976589;28;20050;-71
2023/10/02 06:26:58;;;;;;;;;;;15.80;99.90;;;;;;4997984;28;20179;-70
2023/10/02 06:29:24;;;;;;;15.07;5.05;;;15.80;99.90;;;;;;4980666;28;20020;-71
2023/10/02 06:32:05;;;;;;;17.45;6.03;;;15.90;99.90;;;;;;5001122;28;20129;-70
2023/10/02 06:34:37;;;;;;;;;;;15.90;99.90;;;;;;4981700;28;20042;-70
2023/10/02 06:37:13;;;;;;;19.35;5.95;;;15.80;99.90;;;;;;4997386;28;20294;-71
2023/10/02 06:39:46;;;;;;;17.15;5.53;;;15.90;99.90;;;;;;4999964;28;20442;-71
2023/10/02 06:42:17;;;;;;;12.60;4.45;;;15.90;99.90;;;;;;4980152;28;20030;-72
2023/10/02 06:44:52;;;;;;;14.70;5.55;;;15.90;99.90;;;;;;4996627;28;20600;-70
2023/10/02 06:47:23;;;;;;;19.27;5.88;;;16.00;99.90;;;;;;4997883;28;20030;-72
2023/10/02 06:49:51;;;;;;;;;;;16.00;99.90;;;;;;4982527;28;20049;-70
2023/10/02 06:52:18;;;;;;;11.70;4.97;;;16.00;99.90;;;;;;4979298;28;19921;-71
2023/10/02 06:54:45;;;;;;;15.57;5.38;;;16.00;99.90;;;;;;4979524;28;20049;-72
2023/10/02 06:57:20;;;;;;;18.80;5.53;;;16.00;99.90;;;;;;4980122;28;20034;-70
2023/10/02 06:59:53;;;;;;;17.88;5.35;;;16.10;99.90;;;;;;5000648;28;20042;-71
2023/10/02 07:02:26;;;;;;;15.35;5.28;;;16.10;99.90;;;;;;4990353;28;20037;-70
2023/10/02 07:04:56;;;;;;;14.13;5.88;;;16.10;99.90;;;;;;4979997;28;20054;-71
2023/10/02 07:07:26;;;;;;;15.87;5.37;;;16.10;99.90;;;;;;4985070;28;20053;-70
2023/10/02 07:09:54;;;;;;;;;;;16.20;99.90;;;;;;4996465;28;20280;-71
2023/10/02 07:12:21;;;;;;;14.93;5.93;;;16.20;99.90;;;;;;4985937;28;19996;-71
2023/10/02 07:14:48;;;;;;;17.88;5.82;;;16.30;99.90;;;;;;5002156;28;20104;-71
2023/10/02 07:17:18;;;;;;;17.92;5.30;;;16.30;99.90;;;;;;4980256;28;20506;-71
2023/10/02 07:19:50;;;;;;;13.18;5.63;;;16.40;99.90;;;;;;4999314;28;20639;-71
2023/10/02 07:22:23;;;;;;;17.40;5.38;;;16.50;99.90;;;;;;4989020;28;20112;-70
2023/10/02 07:24:53;;;;;;;15.15;5.43;;;16.50;99.90;;;;;;5006348;28;20057;-71
2023/10/02 07:27:24;;;;;;;13.45;5.07;;;16.50;99.90;;;;;;4982958;28;20085;-71
2023/10/02 07:29:54;;;;;;;15.07;5.50;;;16.60;99.90;;;;;;4979123;28;20038;-72
2023/10/02 07:32:21;;;;;;;14.32;5.00;;;16.60;99.90;;;;;;4985226;28;20030;-70
2023/10/02 07:34:48;;;;;;;14.13;5.40;;;16.70;99.90;;;;;;4980701;28;20038;-70
2023/10/02 07:37:16;;;;;;;16.55;6.00;;;16.70;99.90;;;;;;4979027;28;20034;-72
2023/10/02 07:39:42;;;;;;;16.00;5.40;;;16.80;99.90;;;;;;4991212;28;20044;-71
2023/10/02 07:42:10;;;;;;;20.35;5.78;;;16.90;99.90;;;;;;5002622;28;20033;-72
2023/10/02 07:44:36;;;;;;;13.18;5.38;;;17.10;99.90;;;;;;4997392;28;20105;-71
2023/10/02 07:47:10;;;;;;;14.68;5.85;;;17.20;99.90;;;;;;4977823;28;20712;-72
2023/10/02 07:49:48;;;;;;;15.70;5.63;;;17.20;99.90;;;;;;4985556;28;20042;-70
2023/10/02 07:52:30;;;;;;;17.83;5.45;;;17.30;99.90;;;;;;4996018;28;20032;-71
2023/10/02 07:54:59;;;;;;;17.13;5.28;;;17.30;99.90;;;;;;4984265;28;20117;-71
2023/10/02 07:57:32;;;;;;;14.48;5.60;;;17.30;99.90;;;;;;4997721;28;20034;-71
2023/10/02 08:00:33;;;;;;;12.95;4.72;;;17.40;99.90;;;;;;4994173;28;20034;-72
2023/10/02 08:02:52;;;;;;;16.35;5.13;;;17.40;99.90;;;;;;4995810;28;20041;-70
2023/10/02 08:05:20;;;;;;;16.15;5.15;;;17.40;99.90;;;;;;4983773;28;20045;-70
2023/10/02 08:07:46;;;;;;;14.23;4.88;;;17.50;99.90;;;;;;4997332;28;20455;-71
2023/10/02 08:10:15;;;;;;;12.68;4.60;;;17.50;99.90;;;;;;5000425;28;20064;-70
2023/10/02 08:12:54;;;;;;;11.32;4.63;;;17.60;99.90;;;;;;5000092;28;20061;-70
2023/10/02 08:15:26;;;;;;;17.43;5.77;;;17.70;99.90;;;;;;4979307;28;20161;-71
2023/10/02 08:20:31;;;;;;;19.48;6.22;;;17.80;99.90;;;;;;5013449;28;20497;-71
2023/10/02 08:22:58;;;;;;;11.90;5.10;;;17.90;99.90;;;;;;4999429;28;20109;-71
2023/10/02 08:25:23;;;;;;;17.48;5.70;;;18.00;99.90;;;;;;4976207;28;20513;-71
2023/10/02 08:27:55;;;;;;;17.13;5.35;;;18.10;99.90;;;;;;4981731;28;20030;-71
2023/10/02 08:30:36;;;;;;;16.45;5.65;;;18.20;99.90;;;;;;4976240;28;20042;-70
2023/10/02 08:33:09;;;;;;;18.17;7.20;;;18.30;99.90;;;;;;4995241;28;20041;-73
2023/10/02 08:35:40;;;;;;;14.07;6.22;;;18.40;99.90;;;;;;4988915;28;20496;-71
2023/10/02 08:38:07;;;;;;;16.30;5.43;;;18.50;99.90;;;;;;4993307;28;20084;-71
2023/10/02 08:40:33;;;;;;;17.95;6.13;;;18.70;99.90;;;;;;4976547;28;20045;-71
2023/10/02 08:42:59;;;;;;;17.08;5.95;;;18.80;99.90;;;;;;4991345;28;20038;-72
2023/10/02 08:45:25;;;;;;;23.15;7.47;;;18.90;99.90;;;;;;5002039;28;20029;-71
2023/10/02 08:47:52;;;;;;;17.73;5.95;;;19.00;99.90;;;;;;4991468;28;20042;-71
2023/10/02 08:50:18;;;;;;;20.52;7.00;;;19.00;99.90;;;;;;4993352;28;20068;-71
2023/10/02 08:52:50;;;;;;;23.35;8.02;;;19.10;99.90;;;;;;5006933;28;20042;-71
2023/10/02 08:55:40;;;;;;;22.25;6.53;;;19.10;99.90;;;;;;4987304;28;20034;-71
2023/10/02 09:03:43;;;;;;;21.15;7.85;;;19.20;99.90;;;;;;4994346;28;20042;-71
2023/10/02 09:06:25;;;;;;;18.77;5.70;;;19.20;99.90;;;;;;4972317;28;20380;-71
2023/10/02 09:09:16;;;;;;;19.00;6.32;;;19.20;99.90;;;;;;4997349;28;20041;-71
2023/10/02 09:11:42;;;;;;;15.85;6.05;;;19.20;99.90;;;;;;4994468;28;20034;-71
2023/10/02 09:19:46;;;;;;;21.08;7.25;;;19.60;99.90;;;;;;4997328;28;20367;-71
2023/10/02 09:22:17;;;;;;;18.25;7.07;;;19.70;99.90;;;;;;4972713;28;20030;-71
2023/10/02 09:24:58;;;;;;;19.95;6.90;;;19.80;99.90;;;;;;4996924;28;20038;-71
2023/10/02 09:27:31;;;;;;;21.63;7.10;;;19.90;99.90;;;;;;4979797;28;20025;-71
2023/10/02 09:30:16;;;;;;;21.27;6.55;;;20.00;99.90;;;;;;4970415;28;20054;-71
2023/10/02 09:32:52;;;;;;;19.90;6.90;;;20.10;99.90;;;;;;4995355;28;20039;-71
2023/10/02 09:35:23;;;;;;;18.92;7.60;;;20.20;99.90;;;;;;4972737;28;20076;-71
2023/10/02 09:37:55;;;;;;;21.42;7.15;;;20.30;99.90;;;;;;4998562;28;20038;-72
2023/10/02 09:40:54;;;;;;;21.48;7.18;;;20.30;99.90;;;;;;4992158;28;20534;-70
2023/10/02 09:43:24;;;;;;;22.58;7.50;;;20.30;99.90;;;;;;5023401;28;20033;-72
2023/10/02 09:45:55;;;;;;;22.42;7.18;;;20.40;99.90;;;;;;4992064;28;20489;-70
2023/10/02 09:51:25;;;;;;;18.10;6.53;;;20.60;99.90;;;;;;4994454;28;20041;-69
2023/10/02 09:54:08;;;;;;;15.55;6.18;;;20.80;99.90;;;;;;4978247;28;20057;-70
2023/10/02 09:57:13;;;;;;;15.88;5.45;;;20.80;99.90;;;;;;4996451;28;20060;-69
2023/10/02 09:59:46;;;;;;;17.05;6.50;;;20.90;99.90;;;;;;4981750;28;20099;-69
2023/10/02 10:10:38;;;;;;;;;;;20.70;99.90;;;;;;4993597;28;20076;-70
2023/10/02 10:13:27;;;;;;;14.57;5.03;;;20.60;99.90;;;;;;4974831;28;19938;-70
2023/10/02 10:16:18;;;;;;;17.73;5.93;;;20.60;99.90;;;;;;4999169;28;20046;-70
2023/10/02 10:24:56;;;;;;;13.57;5.68;;;20.60;99.90;;;;;;4994751;28;20108;-70
2023/10/02 10:27:40;;;;;;;16.30;5.55;;;20.50;99.90;;;;;;5000034;28;20038;-70
2023/10/02 10:30:28;;;;;;;12.95;4.82;;;20.60;99.90;;;;;;4977262;28;20544;-70
2023/10/02 10:35:41;;;;;;;13.95;5.47;;;20.70;99.90;;;;;;4996811;28;20445;-70
2023/10/02 10:38:23;;;;;;;15.40;4.75;;;20.80;99.90;;;;;;5001797;28;20302;-70
2023/10/02 10:40:55;;;;;;;12.60;4.75;;;21.00;99.90;;;;;;4984488;28;20065;-70
2023/10/02 10:43:26;;;;;;;11.68;5.03;;;21.10;99.90;;;;;;4977298;28;20030;-70
2023/10/02 10:45:54;;;;;;;16.55;5.78;;;21.10;99.90;;;;;;4990115;28;20375;-70
2023/10/02 10:48:23;;;;;;;10.73;4.68;;;21.20;99.90;;;;;;4988742;28;20521;-70
2023/10/02 10:50:57;;;;;;;17.40;5.50;;;21.30;99.90;;;;;;5019808;28;20074;-70
2023/10/02 10:53:29;;;;;;;14.30;5.78;;;21.30;99.90;;;;;;4980891;28;20086;-69
2023/10/02 10:56:16;;;;;;;14.60;5.18;;;21.40;99.90;;;;;;4996269;28;20038;-70
2023/10/02 10:58:44;;;;;;;16.13;5.18;;;21.40;99.90;;;;;;4977404;28;20411;-71
2023/10/02 11:01:16;;;;;;;14.40;5.60;;;21.40;99.90;;;;;;4978829;28;20038;-69
2023/10/02 11:03:43;;;;;;;11.98;4.63;;;21.40;99.90;;;;;;4998669;28;20038;-69
2023/10/02 11:06:10;;;;;;;12.00;5.07;;;21.50;99.90;;;;;;4996564;28;20030;-71
2023/10/02 11:08:40;;;;;;;18.08;5.43;;;21.50;99.90;;;;;;5000739;28;20042;-70
2023/10/02 11:11:21;;;;;;;15.27;5.38;;;21.50;99.90;;;;;;4984707;28;20084;-70
2023/10/02 11:13:58;;;;;;;18.38;5.22;;;21.50;99.90;;;;;;4992263;28;20658;-70
2023/10/02 11:16:50;;;;;;;13.95;4.82;;;21.50;99.90;;;;;;5005670;28;20037;-69
2023/10/02 11:22:16;;;;;;;14.77;5.50;;;21.60;99.90;;;;;;4999493;28;20049;-71
2023/10/02 11:24:52;;;;;;;12.07;4.72;;;21.60;99.90;;;;;;4979867;28;20480;-70
2023/10/02 11:27:18;;;;;;;13.65;4.65;;;21.40;99.90;;;;;;5001769;28;20142;-70
2023/10/02 11:30:03;;;;;;;19.67;5.00;;;21.40;99.90;;;;;;4979989;28;20476;-72
2023/10/02 11:32:54;;;;;;;16.52;5.18;;;21.30;99.90;;;;;;5005902;28;20050;-69
2023/10/02 11:35:21;;;;;;;11.82;4.72;;;21.20;99.90;;;;;;4997356;28;20383;-70
2023/10/02 11:37:48;;;;;;;14.32;4.68;;;21.10;99.90;;;;;;5000904;28;20506;-70
2023/10/02 11:40:14;;;;;;;15.27;4.88;;;21.10;99.90;;;;;;4979969;28;20145;-69
2023/10/02 11:42:40;;;;;;;14.57;4.97;;;21.10;99.90;;;;;;4980402;28;20054;-69
2023/10/02 11:45:11;;;;;;;18.55;6.03;;;21.00;99.90;;;;;;4999388;28;20109;-70
2023/10/02 11:47:37;;;;;;;18.15;5.45;;;21.00;99.90;;;;;;4998008;28;20038;-70
2023/10/02 11:50:04;;;;;;;13.00;4.90;;;21.10;99.90;;;;;;4999303;28;20053;-69
2023/10/02 11:52:31;;;;;;;10.75;5.05;;;21.10;99.90;;;;;;4983387;28;20406;-69
2023/10/02 11:54:57;;;;;;;13.02;5.18;;;21.20;99.90;;;;;;4982796;28;20056;-69
2023/10/02 11:57:22;;;;;;;14.95;5.97;;;21.30;99.90;;;;;;4995616;28;20050;-69
2023/10/02 11:59:50;;;;;;;16.33;5.45;;;21.40;99.90;;;;;;4999472;28;20061;-69
2023/10/02 12:02:18;;;;;;;18.67;5.82;;;21.40;99.90;;;;;;4979576;28;20041;-72
2023/10/02 12:04:45;;;;;;;13.50;5.03;;;21.40;99.90;;;;;;4980731;28;20053;-72
2023/10/02 12:07:16;;;;;;;12.57;4.70;;;21.40;99.90;;;;;;4998933;28;20046;-71
2023/10/02 12:09:44;;;;;;;13.38;4.55;;;21.30;99.90;;;;;;4999336;28;20067;-71
2023/10/02 12:12:11;;;;;;;14.90;5.05;;;21.30;99.90;;;;;;5001158;28;20034;-73
2023/10/02 12:14:39;;;;;;;12.95;5.38;;;21.30;99.90;;;;;;4981034;28;20049;-72
2023/10/02 12:17:05;;;;;;;16.48;4.75;;;21.40;99.90;;;;;;4997253;28;20053;-70
2023/10/02 12:19:36;;;;;;;13.93;5.40;;;21.50;99.90;;;;;;4998459;28;20487;-72
2023/10/02 12:22:05;;;;;;;;;;;21.50;99.90;;;;;;4992419;28;20053;-70
2023/10/02 12:24:32;;;;;;;16.45;5.13;;;21.60;99.90;;;;;;4998201;28;19926;-70
2023/10/02 12:26:58;;;;;;;13.35;5.18;;;21.60;99.90;;;;;;4999797;28;20038;-70
2023/10/02 12:29:24;;;;;;;13.63;4.82;;;21.70;99.90;;;;;;4995613;28;20050;-71
2023/10/02 12:31:51;;;;;;;10.45;4.00;;;21.70;99.90;;;;;;4981578;28;20116;-71
2023/10/02 12:34:17;;;;;;;22.02;5.35;;;21.60;99.90;;;;;;4978296;28;20044;-70
2023/10/02 12:36:44;;;;;;;19.73;6.38;;;21.60;99.90;;;;;;4995320;28;20046;-71
2023/10/02 12:39:12;;;;;;;15.25;5.82;;;21.60;99.90;;;;;;4974985;28;20761;-72
2023/10/02 12:41:38;;;;;;;15.48;5.57;;;21.60;99.90;;;;;;4997563;28;20041;-72
2023/10/02 12:44:04;;;;;;;13.75;5.43;;;21.70;99.90;;;;;;4979159;28;20548;-73
2023/10/02 12:46:30;;;;;;;14.50;5.85;;;21.70;99.90;;;;;;4978358;28;20031;-72
2023/10/02 12:48:57;;;;;;;11.20;4.30;;;21.70;99.90;;;;;;4977989;28;20104;-70
2023/10/02 12:51:24;;;;;;;14.13;5.88;;;21.70;99.90;;;;;;4976307;28;20477;-71
2023/10/02 12:53:50;;;;;;;13.57;5.57;;;21.70;99.90;;;;;;4998453;28;20510;-71
2023/10/02 12:56:24;;;;;;;15.52;5.50;;;21.80;99.90;;;;;;4996154;28;20026;-72
2023/10/02 12:58:54;;;;;;;16.30;4.90;;;21.80;99.90;;;;;;4973592;28;20065;-71
2023/10/02 13:01:24;;;;;;;11.07;4.22;;;21.90;99.90;;;;;;4992915;28;20038;-71
2023/10/02 13:03:54;;;;;;;12.13;4.70;;;21.90;99.90;;;;;;4974632;28;20179;-71
2023/10/02 13:06:21;;;;;;;10.80;3.50;;;22.00;99.90;;;;;;4998683;28;20045;-70
2023/10/02 13:08:46;;;;;;;16.83;4.50;;;22.00;99.90;;;;;;4960535;28;1078120;-71
2023/10/02 13:11:18;;;;;;;12.50;4.15;;;22.00;99.90;;;;;;4977653;28;20030;-71
2023/10/02 13:13:46;;;;;;;11.57;4.10;;;22.00;99.90;;;;;;4982998;28;20041;-70
2023/10/02 13:16:15;;;;;;;16.45;4.45;;;22.10;99.90;;;;;;4987389;28;20475;-70
2023/10/02 13:18:41;;;;;;;13.43;4.63;;;22.10;99.90;;;;;;4985805;28;20097;-71
2023/10/02 13:21:08;;;;;;;17.23;5.72;;;22.10;99.90;;;;;;4994193;28;20042;-73
2023/10/02 13:23:35;;;;;;;13.85;4.93;;;22.10;99.90;;;;;;4981003;28;20028;-70
2023/10/02 13:26:04;;;;;;;15.25;3.90;;;22.10;99.90;;;;;;4992279;28;20113;-72
2023/10/02 13:28:30;;;;;;;14.07;4.43;;;22.00;99.90;;;;;;4997513;28;20089;-71
2023/10/02 13:30:56;;;;;;;20.58;6.07;;;22.10;99.90;;;;;;4999109;28;20269;-72
2023/10/02 13:33:21;;;;;;;9.32;4.28;;;22.10;99.90;;;;;;4994521;28;20561;-71
2023/10/02 13:35:54;;;;;;;15.77;5.35;;;22.10;99.90;;;;;;4997385;28;20133;-72
2023/10/02 13:38:20;;;;;;;16.40;4.72;;;22.00;99.90;;;;;;5006369;28;20033;-71
2023/10/02 13:40:46;;;;;;;9.15;3.90;;;22.00;99.90;;;;;;4988662;28;20061;-72
2023/10/02 13:43:11;;;;;;;13.38;4.07;;;22.00;99.90;;;;;;4982674;28;20030;-71
2023/10/02 13:45:37;;;;;;;12.18;4.50;;;22.00;99.90;;;;;;4984302;28;20034;-71
2023/10/02 13:48:04;;;;;;;13.88;4.25;;;22.00;99.90;;;;;;4998639;28;20105;-72
2023/10/02 13:50:34;;;;;;;16.10;4.55;;;22.00;99.90;;;;;;4995053;28;20061;-71
2023/10/02 13:53:01;;;;;;;13.48;4.45;;;22.00;99.90;;;;;;4979341;28;20085;-75
2023/10/02 13:55:27;;;;;;;11.10;3.88;;;22.00;99.90;;;;;;4986598;28;20733;-70
2023/10/02 13:57:55;;;;;;;11.90;4.45;;;21.90;99.90;;;;;;4994408;28;20037;-73
2023/10/02 14:00:21;;;;;;;15.93;5.38;;;21.90;99.90;;;;;;4978522;28;20054;-72
2023/10/02 14:02:51;;;;;;;13.40;5.03;;;21.90;99.90;;;;;;4983027;28;20069;-69
2023/10/02 14:05:18;;;;;;;14.55;4.93;;;21.90;99.90;;;;;;5001154;28;20204;-71
2023/10/02 14:07:45;;;;;;;14.95;5.00;;;21.90;99.90;;;;;;4999730;28;20043;-72
2023/10/02 14:10:16;;;;;;;13.85;4.70;;;21.90;99.90;;;;;;4999272;28;20121;-73
2023/10/02 14:12:43;;;;;;;17.70;5.53;;;22.00;99.90;;;;;;5000894;28;20116;-71
2023/10/02 14:15:19;;;;;;;13.73;5.13;;;22.00;99.90;;;;;;4982838;28;20053;-71